Time;durP1;ratioP1;P1;durP2;ratioP2;P2;SDS_P1;SDS_P2;PMS_P1;PMS_P2;Temp;Humidity;BMP_temperature;BMP_pressure;BME280_temperature;BME280_humidity;BME280_pressure;Samples;Min_cycle;Max_cycle;Signal;HPM_P1;HPM_P2
2022/10/04 05:03:32;;;;;;;;;;;;;;;5.11;100.00;100236.25;5129253;23;20475;-88
2022/10/04 05:06:01;;;;;;;;;;;;;;;5.23;100.00;100235.22;4992283;28;20020;-87
2022/10/04 05:08:28;;;;;;;;;;;;;;;5.33;100.00;100228.06;4996228;28;19925;-88
2022/10/04 05:11:00;;;;;;;;;;;;;;;5.40;100.00;100227.09;4978545;28;19921;-92
2022/10/04 05:13:33;;;;;;;;;;;;;;;5.48;100.00;100225.22;4995898;28;19918;-86
2022/10/04 05:15:58;;;;;;;;;;;;;;;5.58;100.00;100233.84;4996001;28;19918;-87
2022/10/04 05:18:28;;;;;;;;;;;;;;;5.61;100.00;100223.28;4994572;28;20361;-87
2022/10/04 05:20:55;;;;;;;;;;;;;;;5.69;100.00;100217.91;4968651;28;20373;-88
2022/10/04 05:23:21;;;;;;;;;;;;;;;5.73;100.00;100209.09;4977050;28;19918;-88
2022/10/04 05:25:50;;;;;;;;;;;;;;;5.76;100.00;100209.00;4994782;28;19945;-88
2022/10/04 05:28:23;;;;;;;;;;;;;;;5.84;100.00;100209.78;4995991;28;19917;-87
2022/10/04 05:31:09;;;;;;;;;;;;;;;5.88;100.00;100213.22;4978209;28;20376;-90
2022/10/04 05:33:44;;;;;;;;;;;;;;;5.92;100.00;100212.25;4976842;28;19961;-89
2022/10/04 05:36:22;;;;;;;;;;;;;;;5.95;100.00;100214.81;4978212;28;19918;-88
2022/10/04 05:39:08;;;;;;;;;;;;;;;6.00;100.00;100219.16;4995651;28;19924;-90
2022/10/04 05:41:34;;;;;;;;;;;;;;;6.04;100.00;100216.47;4977464;28;19917;-89
2022/10/04 05:44:02;;;;;;;;;;;;;;;6.10;100.00;100219.00;4978116;28;20288;-91
2022/10/04 05:46:37;;;;;;;;;;;;;;;6.12;100.00;100227.72;4976721;28;20372;-88
2022/10/04 05:49:12;;;;;;;;;;;;;;;6.17;100.00;100225.88;4978054;28;19924;-87
2022/10/04 05:52:10;;;;;;;;;;;;;;;6.20;100.00;100220.56;4977612;28;20105;-87
2022/10/04 05:54:51;;;;;;;;;;;;;;;6.27;100.00;100227.47;4948328;28;20052;-87
2022/10/04 05:57:34;;;;;;;;;;;;;;;6.29;100.00;100225.66;4977319;28;20546;-87
2022/10/04 06:00:09;;;;;;;;;;;;;;;6.32;100.00;100224.75;4977818;28;19921;-87
2022/10/04 06:03:03;;;;;;;;;;;;;;;6.32;100.00;100225.63;4975711;28;19929;-87
2022/10/04 06:05:50;;;;;;;;;;;;;;;6.38;100.00;100224.63;4969430;28;19925;-88
2022/10/04 06:08:24;;;;;;;;;;;;;;;6.42;100.00;100233.34;4994408;28;19929;-87
2022/10/04 06:10:50;;;;;;;;;;;;;;;6.44;100.00;100234.19;4994887;28;20377;-88
2022/10/04 06:13:33;;;;;;;;;;;;;;;6.46;100.00;100235.91;4994907;28;19918;-89
2022/10/04 06:16:16;;;;;;;;;;;;;;;6.50;100.00;100234.06;4994538;28;20061;-88
2022/10/04 06:18:57;;;;;;;;;;;;;;;;;;;;;
2022/10/04 06:21:35;;;;;;;;;;;;;;;6.51;100.00;100227.88;4994582;28;20280;-90
2022/10/04 06:24:03;;;;;;;;;;;;;;;6.52;100.00;100227.84;4994625;28;19921;-85
2022/10/04 06:26:33;;;;;;;;;;;;;;;6.55;100.00;100224.31;4994618;28;20024;-85
2022/10/04 06:29:11;;;;;;;;;;;;;;;6.58;100.00;100229.50;4994246;28;19918;-87
2022/10/04 06:31:48;;;;;;;;;;;;;;;6.55;100.00;100235.69;4975877;28;19930;-87
2022/10/04 06:34:29;;;;;;;;;;;;;;;6.61;100.00;100231.25;4968908;28;20431;-87
2022/10/04 06:37:04;;;;;;;;;;;;;;;6.61;100.00;100231.25;4994512;28;19918;-87
2022/10/04 06:39:45;;;;;;;;;;;;;;;6.64;100.00;100232.03;4976638;28;19940;-86
2022/10/04 06:42:32;;;;;;;;;;;;;;;6.63;100.00;100232.06;4976523;28;19929;-86
2022/10/04 06:45:10;;;;;;;;;;;;;;;6.63;100.00;100235.56;4963198;28;19921;-85
2022/10/04 06:47:35;;;;;;;;;;;;;;;6.66;100.00;100235.50;4993085;28;19945;-89
2022/10/04 06:50:11;;;;;;;;;;;;;;;6.66;100.00;100227.59;4994278;28;19918;-86
2022/10/04 06:52:40;;;;;;;;;;;;;;;6.10;100.00;100224.28;4968480;28;19960;-86
2022/10/04 06:55:26;;;;;;;;;;;;;;;5.44;100.00;100224.41;4976564;28;19992;-86
2022/10/04 06:57:57;;;;;;;;;;;;;;;5.27;100.00;100224.63;4994330;28;19918;-89
2022/10/04 07:40:28;;;;;;;;;;;;;;;4.47;100.00;100249.25;4960141;28;19963;-86
2022/10/04 07:42:58;;;;;;;;;;;;;;;4.40;100.00;100244.94;4961251;28;20409;-88
2022/10/04 07:45:50;;;;;;;;;;;;;;;4.46;100.00;100250.13;4956382;28;19969;-90
2022/10/04 07:48:22;;;;;;;;;;;;;;;4.28;100.00;100243.34;4971219;28;20293;-90
2022/10/04 07:51:02;;;;;;;;;;;;;;;4.36;100.00;100248.50;4972675;28;20033;-90
2022/10/04 07:53:43;;;;;;;;;;;;;;;4.28;100.00;100247.72;4972622;28;19988;-89
2022/10/04 07:56:20;;;;;;;;;;;;;;;4.17;100.00;100245.19;4972647;28;19918;-90
2022/10/04 07:59:04;;;;;;;;;;;;;;;4.10;100.00;100238.25;4946420;28;19977;-91
2022/10/04 08:01:53;;;;;;;;;;;;;;;4.09;100.00;100244.41;4973869;28;19918;-92
2022/10/04 08:04:34;;;;;;;;;;;;;;;4.00;100.00;100250.56;4974372;28;19918;-90
2022/10/04 08:07:01;;;;;;;;;;;;;;;4.02;100.00;100251.47;4973706;28;19964;-90
2022/10/04 08:09:41;;;;;;;;;;;;;;;4.02;100.00;100256.69;4956248;28;19961;-89
2022/10/04 08:12:19;;;;;;;;;;;;;;;3.94;100.00;100243.66;4973339;28;20431;-90
2022/10/04 08:14:51;;;;;;;;;;;;;;;4.00;100.00;100247.94;4946722;28;19918;-87
2022/10/04 08:17:19;;;;;;;;;;;;;;;4.03;100.00;100244.44;4981119;28;20025;-88
2022/10/04 08:19:44;;;;;;;;;;;;;;;3.97;100.00;100246.25;4973658;28;20282;-91
2022/10/04 08:22:28;;;;;;;;;;;;;;;3.92;100.00;100249.78;4955104;28;19918;-91
2022/10/04 08:25:04;;;;;;;;;;;;;;;3.98;100.00;100247.09;4972497;28;19922;-87
2022/10/04 08:30:41;;;;;;;;;;;;;;;3.88;100.00;100233.22;4976771;28;19929;-89
2022/10/04 08:33:40;;;;;;;;;;;;;;;3.86;100.00;100234.09;4973828;28;19947;-86
2022/10/04 08:36:24;;;;;;;;;;;;;;;3.96;100.00;100236.63;4905358;28;19918;-85
2022/10/04 08:38:53;;;;;;;;;;;;;;;3.84;100.00;100231.47;4970890;28;20045;-88
2022/10/04 08:41:19;;;;;;;;;;;;;;;3.84;100.00;100241.09;4945992;28;19934;-89
2022/10/04 08:43:58;;;;;;;;;;;;;;;3.76;100.00;100239.41;4972254;28;19993;-89
2022/10/04 08:46:32;;;;;;;;;;;;;;;3.75;100.00;100236.78;4956218;28;20012;-88
2022/10/04 08:49:07;;;;;;;;;;;;;;;3.77;100.00;100235.91;4973997;28;19922;-89
2022/10/04 08:51:50;;;;;;;;;;;;;;;3.81;100.00;100232.41;4956058;28;20335;-93
2022/10/04 08:54:26;;;;;;;;;;;;;;;3.76;100.00;100228.91;4955289;28;19922;-92
2022/10/04 08:56:57;;;;;;;;;;;;;;;3.82;100.00;100228.88;4946651;28;19926;-91
2022/10/04 08:59:41;;;;;;;;;;;;;;;3.72;100.00;100221.09;4972319;28;19918;-89
2022/10/04 09:02:15;;;;;;;;;;;;;;;3.68;100.00;100227.25;4972546;28;20378;-93
2022/10/04 09:04:46;;;;;;;;;;;;;;;3.68;100.00;100229.88;4972912;28;19918;-92
2022/10/04 09:07:31;;;;;;;;;;;;;;;3.69;100.00;100237.72;4970526;28;20029;-88
2022/10/04 09:10:02;;;;;;;;;;;;;;;3.69;100.00;100229.88;4972787;28;20397;-86
2022/10/04 09:12:34;;;;;;;;;;;;;;;3.64;100.00;100229.88;4955777;28;19918;-87
2022/10/04 09:15:03;;;;;;;;;;;;;;;3.62;100.00;100230.78;4945890;28;20017;-91
2022/10/04 09:17:41;;;;;;;;;;;;;;;3.60;100.00;100216.81;4971230;28;19919;-85
2022/10/04 09:20:30;;;;;;;;;;;;;;;3.60;100.00;100225.53;4971873;28;19960;-87
2022/10/04 09:23:01;;;;;;;;;;;;;;;3.68;100.00;100235.13;4970464;28;20021;-88
2022/10/04 09:25:50;;;;;;;;;;;;;;;3.63;100.00;100232.53;4974005;28;19914;-85
2022/10/04 09:28:19;;;;;;;;;;;;;;;3.61;100.00;100234.28;4947988;28;19966;-91
2022/10/04 09:30:59;;;;;;;;;;;;;;;3.66;100.00;100218.53;4966034;28;20013;-93
2022/10/04 09:33:36;;;;;;;;;;;;;;;3.69;100.00;100221.13;4970943;28;19962;-90
2022/10/04 09:36:07;;;;;;;;;;;;;;;3.61;100.00;100213.31;4970056;28;19954;-90
2022/10/04 09:38:44;;;;;;;;;;;;;;;;;;;;;
2022/10/04 09:41:22;;;;;;;;;;;;;;;3.55;100.00;100223.84;4962733;28;20373;-90
2022/10/04 09:44:06;;;;;;;;;;;;;;;3.51;100.00;100228.25;4961169;28;19918;-88
2022/10/04 09:46:58;;;;;;;;;;;;;;;3.63;100.00;100225.53;4959962;28;19948;-87
2022/10/04 09:49:29;;;;;;;;;;;;;;;3.56;100.00;100208.13;4956230;28;20293;-85
2022/10/04 09:52:11;;;;;;;;;;;;;;;3.60;100.00;100217.69;4960241;28;19925;-89
2022/10/04 09:54:46;;;;;;;;;;;;;;;3.61;100.00;100213.31;4963165;28;19926;-87
2022/10/04 09:57:27;;;;;;;;;;;;;;;3.62;100.00;100205.47;4964408;28;20431;-86
2022/10/04 10:00:06;;;;;;;;;;;;;;;3.64;100.00;100208.94;4959827;28;20366;-86
2022/10/04 10:02:37;;;;;;;;;;;;;;;3.64;100.00;100208.94;4963792;28;20013;-86
2022/10/04 10:05:12;;;;;;;;;;;;;;;3.61;100.00;100208.09;4960899;28;19965;-85
2022/10/04 10:07:37;;;;;;;;;;;;;;;3.63;100.00;100204.56;4956665;28;20612;-86
2022/10/04 10:13:41;;;;;;;;;;;;;;;3.62;100.00;100199.31;4894975;29;19920;-86
2022/10/04 10:16:26;;;;;;;;;;;;;;;3.60;100.00;100196.72;4959579;28;19926;-90
2022/10/04 10:18:58;;;;;;;;;;;;;;;3.67;100.00;100199.28;4959023;28;19919;-86
2022/10/04 10:21:42;;;;;;;;;;;;;;;3.64;100.00;100214.16;4947933;28;19915;-87
2022/10/04 10:24:26;;;;;;;;;;;;;;;3.66;100.00;100206.28;4946427;28;19918;-88
2022/10/04 10:27:10;;;;;;;;;;;;;;;3.62;100.00;100207.19;4964226;28;19922;-89
2022/10/04 10:29:59;;;;;;;;;;;;;;;3.57;100.00;100204.59;4961681;28;19928;-88
2022/10/04 10:32:56;;;;;;;;;;;;;;;8.85;100.00;100187.97;4947653;28;19979;-90
2022/10/04 10:35:30;;;;;;;;;;;;;;;5.20;100.00;100194.09;4939678;28;19981;-88
2022/10/04 10:38:20;;;;;;;;;;;;;;;4.59;100.00;100189.66;4959268;28;19927;-88
2022/10/04 10:41:05;;;;;;;;;;;;;;;4.33;100.00;100198.69;4944971;28;20314;-86
2022/10/04 10:43:32;;;;;;;;;;;;;;;4.15;100.00;100200.63;4965380;28;19918;-90
2022/10/04 10:46:03;;;;;;;;;;;;;;;4.13;100.00;100196.25;4948389;28;19918;-89
2022/10/04 10:48:56;;;;;;;;;;;;;;;4.07;100.00;100189.34;4963880;28;19918;-90
2022/10/04 10:51:43;;;;;;;;;;;;;;;4.05;100.00;100198.94;4947533;28;19914;-88
2022/10/04 10:54:11;;;;;;;;;;;;;;;4.04;100.00;100191.97;4945828;28;19926;-88
2022/10/04 10:56:44;;;;;;;;;;;;;;;4.02;100.00;100200.75;4965951;28;19926;-90
2022/10/04 10:59:27;;;;;;;;;;;;;;;4.03;100.00;100192.84;4964264;28;19972;-89
2022/10/04 11:02:11;;;;;;;;;;;;;;;3.96;100.00;100194.69;4963360;28;19918;-90
2022/10/04 11:04:48;;;;;;;;;;;;;;;3.95;100.00;100197.31;4942082;28;20017;-91
2022/10/04 11:07:15;;;;;;;;;;;;;;;3.97;100.00;100206.03;4959487;28;19970;-86
2022/10/04 11:10:06;;;;;;;;;;;;;;;3.93;100.00;100206.94;4947346;28;20337;-91
2022/10/04 11:15:20;;;;;;;;;;;;;;;3.96;100.00;100209.53;4952358;28;19953;-87
2022/10/04 11:17:57;;;;;;;;;;;;;;;3.95;100.00;100206.03;4953716;28;19922;-85
2022/10/04 11:20:31;;;;;;;;;;;;;;;3.99;100.00;100194.66;4937575;29;19962;-83
2022/10/04 11:23:03;;;;;;;;;;;;;;;4.00;100.00;100199.03;4936679;29;19922;-84
2022/10/04 11:26:03;;;;;;;;;;;;;;;3.97;100.00;100191.19;4952425;29;20362;-88
2022/10/04 11:28:35;;;;;;;;;;;;;;;3.90;100.00;100191.25;4921069;29;19922;-86
2022/10/04 11:31:03;;;;;;;;;;;;;;;3.99;100.00;100188.53;4934662;29;19958;-86
2022/10/04 11:33:54;;;;;;;;;;;;;;;3.94;100.00;100185.97;4937234;29;19923;-87
2022/10/04 11:36:28;;;;;;;;;;;;;;;3.96;100.00;100181.56;4927475;28;20592;-86
2022/10/04 11:38:56;;;;;;;;;;;;;;;4.02;100.00;100178.03;4935886;29;19926;-86
2022/10/04 11:41:35;;;;;;;;;;;;;;;3.95;100.00;100174.56;4954238;28;20088;-84
2022/10/04 11:44:03;;;;;;;;;;;;;;;3.96;100.00;100171.06;4954493;28;19958;-87
2022/10/04 11:46:37;;;;;;;;;;;;;;;3.89;100.00;100166.75;4937531;29;19918;-90
2022/10/04 11:49:08;;;;;;;;;;;;;;;3.81;100.00;100168.59;4936699;28;19946;-86
2022/10/04 11:51:37;;;;;;;;;;;;;;;3.90;100.00;100165.88;4954224;28;20400;-85
2022/10/04 11:54:21;;;;;;;;;;;;;;;;;;;;;
2022/10/04 11:57:03;;;;;;;;;;;;;;;3.86;100.00;100164.19;4938780;29;19925;-85
2022/10/04 11:59:33;;;;;;;;;;;;;;;3.79;100.00;100160.75;4951840;28;20013;-86
2022/10/04 12:02:20;;;;;;;;;;;;;;;3.77;100.00;100162.50;4937161;29;19919;-90
2022/10/04 12:05:05;;;;;;;;;;;;;;;3.84;100.00;100149.34;4937282;29;19964;-88
2022/10/04 12:07:42;;;;;;;;;;;;;;;3.84;100.00;100151.97;4951086;28;19922;-83
2022/10/04 12:10:26;;;;;;;;;;;;;;;3.86;100.00;100143.22;4947199;28;19926;-91
2022/10/04 12:12:51;;;;;;;;;;;;;;;3.89;100.00;100147.53;4928418;29;19923;-91
2022/10/04 12:15:29;;;;;;;;;;;;;;;3.90;100.00;100157.16;4950082;28;19926;-85
2022/10/04 12:17:57;;;;;;;;;;;;;;;3.89;100.00;100145.78;4948811;28;20283;-85
2022/10/04 12:20:43;;;;;;;;;;;;;;;3.90;100.00;100154.53;4951130;29;20445;-87
2022/10/04 12:23:29;;;;;;;;;;;;;;;3.88;100.00;100143.19;4946361;29;20294;-85
2022/10/04 12:25:58;;;;;;;;;;;;;;;3.90;100.00;100137.03;4948588;28;19937;-90
2022/10/04 12:28:34;;;;;;;;;;;;;;;3.88;100.00;100127.44;4943626;29;20057;-87
2022/10/04 12:31:10;;;;;;;;;;;;;;;3.87;100.00;100128.34;4952543;28;19930;-85
2022/10/04 12:33:43;;;;;;;;;;;;;;;3.89;100.00;100118.72;4953549;28;19926;-86
2022/10/04 12:36:27;;;;;;;;;;;;;;;3.89;100.00;100121.31;4933432;28;20037;-87
2022/10/04 12:39:01;;;;;;;;;;;;;;;3.92;100.00;100121.31;4951307;28;19929;-85
2022/10/04 12:41:35;;;;;;;;;;;;;;;3.86;100.00;100118.75;4951944;28;19918;-85
2022/10/04 12:44:19;;;;;;;;;;;;;;;3.89;100.00;100114.31;4953783;28;19927;-85
2022/10/04 12:46:44;;;;;;;;;;;;;;;3.92;100.00;100113.44;4936516;29;20017;-86
2022/10/04 12:49:24;;;;;;;;;;;;;;;3.92;100.00;100110.81;4934399;28;20045;-86
2022/10/04 12:52:11;;;;;;;;;;;;;;;3.92;100.00;100102.94;4940167;29;20009;-87
2022/10/04 12:54:36;;;;;;;;;;;;;;;6.45;100.00;100099.03;4957742;29;19927;-86
2022/10/04 12:57:11;;;;;;;;;;;;;;;4.78;100.00;100101.88;4951812;28;19977;-86
2022/10/04 12:59:44;;;;;;;;;;;;;;;4.35;100.00;100094.59;4951865;28;20271;-86
2022/10/04 13:02:10;;;;;;;;;;;;;;;4.21;100.00;100101.75;4935116;29;19976;-85
2022/10/04 13:04:44;;;;;;;;;;;;;;;4.13;100.00;100092.25;4936604;29;20973;-88
2022/10/04 13:07:09;;;;;;;;;;;;;;;4.14;100.00;100095.72;4951777;28;19922;-86
2022/10/04 13:09:48;;;;;;;;;;;;;;;4.17;100.00;100093.06;4950733;29;19926;-85
2022/10/04 13:12:21;;;;;;;;;;;;;;;4.13;100.00;100099.22;4936203;29;19918;-85
2022/10/04 13:14:52;;;;;;;;;;;;;;;4.10;100.00;100099.25;4951477;28;19926;-85
2022/10/04 13:17:23;;;;;;;;;;;;;;;4.10;100.00;100096.63;4953157;28;19926;-85
2022/10/04 13:20:04;;;;;;;;;;;;;;;4.07;100.00;100097.53;4936728;29;20013;-85
2022/10/04 13:22:29;;;;;;;;;;;;;;;4.01;100.00;100100.22;4952005;28;19926;-85
2022/10/04 13:25:20;;;;;;;;;;;;;;;3.98;100.00;100097.66;4953491;29;20005;-86
2022/10/04 13:27:48;;;;;;;;;;;;;;;4.09;100.00;100095.75;4955985;28;20329;-85
2022/10/04 13:30:17;;;;;;;;;;;;;;;4.04;100.00;100101.94;4955710;28;19919;-84
2022/10/04 13:32:55;;;;;;;;;;;;;;;4.01;100.00;100095.00;4939779;29;19918;-87
2022/10/04 13:35:30;;;;;;;;;;;;;;;4.03;100.00;100089.72;4939648;28;19919;-85
2022/10/04 13:38:10;;;;;;;;;;;;;;;4.03;100.00;100095.81;4953814;28;19918;-85
2022/10/04 13:40:39;;;;;;;;;;;;;;;4.16;100.00;100091.31;4955467;28;20362;-85
2022/10/04 13:43:07;;;;;;;;;;;;;;;4.28;100.00;100085.06;4955682;28;20293;-85
2022/10/04 13:45:40;;;;;;;;;;;;;;;4.21;100.00;100081.63;4939507;29;19918;-86
2022/10/04 13:48:24;;;;;;;;;;;;;;;4.09;100.00;100090.53;4956796;29;19919;-86
2022/10/04 13:50:55;;;;;;;;;;;;;;;4.24;100.00;100088.59;4939809;29;19964;-86
2022/10/04 13:56:38;;;;;;;;;;;;;;;4.21;100.00;100088.63;4955605;28;19937;-88
2022/10/04 13:59:23;;;;;;;;;;;;;;;4.13;100.00;100083.47;4938738;29;19926;-87
2022/10/04 14:01:52;;;;;;;;;;;;;;;4.09;100.00;100080.03;4953806;28;19931;-87
2022/10/04 14:04:32;;;;;;;;;;;;;;;4.07;100.00;100071.31;4938322;29;19923;-87
2022/10/04 14:07:38;;;;;;;;;;;;;;;4.13;100.00;100073.88;4955366;28;19919;-87
2022/10/04 14:10:02;;;;;;;;;;;;;;;4.12;100.00;100060.78;4956049;28;19929;-87
2022/10/04 14:12:46;;;;;;;;;;;;;;;4.11;100.00;100057.28;4956295;28;19922;-87
2022/10/04 14:15:41;;;;;;;;;;;;;;;4.14;100.00;100061.63;4954113;28;19927;-87
2022/10/04 14:18:25;;;;;;;;;;;;;;;4.05;100.00;100057.34;4934506;28;19939;-88
2022/10/04 14:21:02;;;;;;;;;;;;;;;4.12;100.00;100063.41;4958006;28;20017;-86
2022/10/04 14:23:33;;;;;;;;;;;;;;;4.11;100.00;100062.50;4937646;28;19915;-87
2022/10/04 14:25:59;;;;;;;;;;;;;;;4.07;100.00;100060.84;4955077;28;19919;-87
2022/10/04 14:28:43;;;;;;;;;;;;;;;4.01;100.00;100060.91;4954718;28;19937;-86
2022/10/04 14:31:19;;;;;;;;;;;;;;;4.03;100.00;100055.63;4954027;29;20290;-88
2022/10/04 14:34:05;;;;;;;;;;;;;;;3.95;100.00;100064.44;4937064;29;20005;-86
2022/10/04 14:36:53;;;;;;;;;;;;;;;4.01;100.00;100060.91;4952901;28;19926;-87
2022/10/04 14:39:27;;;;;;;;;;;;;;;4.02;100.00;100052.16;4935525;29;19977;-88
2022/10/04 14:41:58;;;;;;;;;;;;;;;4.06;100.00;100058.22;4953975;28;19918;-88
2022/10/04 14:44:30;;;;;;;;;;;;;;;4.02;100.00;100057.41;4935629;29;19929;-88
2022/10/04 14:47:14;;;;;;;;;;;;;;;4.07;100.00;100047.72;4938682;29;19977;-87
2022/10/04 14:49:57;;;;;;;;;;;;;;;4.11;100.00;100062.50;4953139;28;19954;-87
2022/10/04 14:52:41;;;;;;;;;;;;;;;4.04;100.00;100057.34;4938092;29;19926;-88
2022/10/04 14:55:12;;;;;;;;;;;;;;;4.08;100.00;100062.56;4952618;29;19923;-87
2022/10/04 14:57:39;;;;;;;;;;;;;;;4.03;100.00;100053.88;4937410;29;19929;-88
2022/10/04 15:00:19;;;;;;;;;;;;;;;4.01;100.00;100055.66;4954902;28;19934;-88
2022/10/04 15:02:51;;;;;;;;;;;;;;;5.23;100.00;100057.44;4938750;29;20414;-87
2022/10/04 15:05:27;;;;;;;;;;;;;;;4.46;100.00;100052.47;4937038;29;19926;-85
2022/10/04 15:08:28;;;;;;;;;;;;;;;4.17;100.00;100051.09;4937311;29;20017;-87
2022/10/04 15:11:02;;;;;;;;;;;;;;;4.12;100.00;100052.91;4880230;29;19948;-87
2022/10/04 15:13:54;;;;;;;;;;;;;;;4.06;100.00;100043.34;4944247;28;19926;-88
2022/10/04 15:16:28;;;;;;;;;;;;;;;3.99;100.00;100036.47;4937645;29;19930;-85
2022/10/04 15:19:26;;;;;;;;;;;;;;;6.52;100.00;100024.28;4935657;29;20472;-81
2022/10/04 15:21:54;;;;;;;;;;;;;;;5.37;100.00;100027.41;4894509;29;19927;-82
2022/10/04 15:24:40;;;;;;;;;;;;;;;4.74;100.00;100039.81;4893458;29;19970;-82
2022/10/04 15:27:11;;;;;;;;;;;;;;;4.59;100.00;100037.41;4951085;29;20382;-81
2022/10/04 15:29:44;;;;;;;;;;;;;;;4.54;100.00;100046.22;4952838;28;20890;-82
2022/10/04 15:32:10;;;;;;;;;;;;;;;4.46;100.00;100037.59;4935659;29;20354;-83
2022/10/04 15:34:47;;;;;;;;;;;;;;;4.42;100.00;100035.91;4954438;28;19929;-82
2022/10/04 15:37:12;;;;;;;;;;;;;;;6.30;100.00;100032.66;4954101;28;20366;-82
2022/10/04 15:39:47;;;;;;;;;;;;;;;5.03;100.00;100039.38;4937310;29;19929;-81
2022/10/04 15:42:24;;;;;;;;;;;;;;;4.66;100.00;100025.91;4937325;29;19918;-82
2022/10/04 15:45:11;;;;;;;;;;;;;;;4.57;100.00;100018.22;4936886;29;19922;-81
2022/10/04 15:47:55;;;;;;;;;;;;;;;4.42;100.00;100009.66;4952388;28;19953;-81
2022/10/04 15:50:28;;;;;;;;;;;;;;;4.43;100.00;100000.88;4937257;29;19973;-81
2022/10/04 15:53:03;;;;;;;;;;;;;;;4.41;100.00;100002.69;4947217;28;19918;-82
2022/10/04 15:55:34;;;;;;;;;;;;;;;4.34;100.00;99995.75;4952336;28;19929;-81
2022/10/04 15:58:19;;;;;;;;;;;;;;;4.34;100.00;99996.66;4952649;29;19922;-82
2022/10/04 16:00:44;;;;;;;;;;;;;;;4.33;100.00;100000.16;4937074;29;20017;-82
2022/10/04 16:03:26;;;;;;;;;;;;;;;4.33;100.00;99999.28;4937114;29;20605;-81
2022/10/04 16:06:19;;;;;;;;;;;;;;;4.27;100.00;100005.47;4952646;28;19923;-82
2022/10/04 16:08:47;;;;;;;;;;;;;;;4.24;100.00;100000.28;4951681;28;19922;-81
2022/10/04 16:11:31;;;;;;;;;;;;;;;4.21;100.00;99995.06;4937035;29;19918;-81
2022/10/04 16:14:13;;;;;;;;;;;;;;;4.26;100.00;99993.28;4954113;29;19978;-82
2022/10/04 16:16:38;;;;;;;;;;;;;;;4.24;100.00;99991.53;4936901;29;19954;-81
2022/10/04 16:19:28;;;;;;;;;;;;;;;4.27;100.00;99992.38;4954175;29;19977;-81
2022/10/04 16:22:13;;;;;;;;;;;;;;;4.29;100.00;99989.72;4936549;29;19922;-82
2022/10/04 16:24:52;;;;;;;;;;;;;;;4.21;100.00;99984.56;4953621;28;20005;-81
2022/10/04 16:27:23;;;;;;;;;;;;;;;4.25;100.00;99982.81;4936488;29;19918;-81
2022/10/04 16:30:00;;;;;;;;;;;;;;;4.23;100.00;99984.56;4936824;28;19918;-82
2022/10/04 16:32:44;;;;;;;;;;;;;;;4.24;100.00;99994.16;4931198;29;19926;-81
2022/10/04 16:35:24;;;;;;;;;;;;;;;4.26;100.00;99992.38;4952063;28;19919;-82
2022/10/04 16:37:49;;;;;;;;;;;;;;;4.19;100.00;99992.47;4952663;28;19966;-84
2022/10/04 16:40:26;;;;;;;;;;;;;;;4.24;100.00;99999.41;4936691;29;19926;-82
2022/10/04 16:42:52;;;;;;;;;;;;;;;4.25;100.00;99995.91;4936669;29;20009;-82
2022/10/04 16:45:37;;;;;;;;;;;;;;;4.21;100.00;99996.84;4935828;29;20014;-82
2022/10/04 16:48:22;;;;;;;;;;;;;;;5.19;100.00;99997.09;4918108;28;19966;-83
2022/10/04 16:50:47;;;;;;;;;;;;;;;4.52;100.00;99994.66;4951805;28;19926;-80
2022/10/04 16:53:24;;;;;;;;;;;;;;;4.39;100.00;99996.59;4934404;29;19926;-83
2022/10/04 16:55:53;;;;;;;;;;;;;;;4.32;100.00;100003.69;4951496;28;19960;-82
2022/10/04 16:58:25;;;;;;;;;;;;;;;4.30;100.00;100001.97;4953140;28;19969;-81
2022/10/04 17:01:11;;;;;;;;;;;;;;;4.33;100.00;100001.91;4953255;28;19922;-82
2022/10/04 17:03:44;;;;;;;;;;;;;;;4.36;100.00;100007.13;4939303;29;19957;-81
2022/10/04 17:06:13;;;;;;;;;;;;;;;4.27;100.00;100017.75;4957576;28;19918;-83
2022/10/04 17:08:45;;;;;;;;;;;;;;;4.29;100.00;100016.84;4938971;29;19919;-81
2022/10/04 17:11:27;;;;;;;;;;;;;;;4.29;100.00;100021.19;4939769;29;20302;-82
2022/10/04 17:14:00;;;;;;;;;;;;;;;4.26;100.00;100023.88;4955168;29;20021;-82
2022/10/04 17:16:37;;;;;;;;;;;;;;;4.27;100.00;100023.00;4938784;29;19938;-81
2022/10/04 17:19:11;;;;;;;;;;;;;;;4.32;100.00;100026.41;4939662;29;19922;-81
2022/10/04 17:21:37;;;;;;;;;;;;;;;4.27;100.00;100023.00;4954253;28;19962;-82
2022/10/04 17:24:17;;;;;;;;;;;;;;;4.29;100.00;100032.59;4937666;29;19978;-82
2022/10/04 17:26:45;;;;;;;;;;;;;;;4.29;100.00;100040.44;4955971;29;20397;-82
2022/10/04 17:29:23;;;;;;;;;;;;;;;4.29;100.00;100031.69;4939357;29;19922;-82
2022/10/04 17:31:55;;;;;;;;;;;;;;;4.31;100.00;100038.66;4956335;28;19945;-84
2022/10/04 17:34:25;;;;;;;;;;;;;;;4.29;100.00;100050.94;4957402;28;19945;-82
2022/10/04 17:36:57;;;;;;;;;;;;;;;4.30;100.00;100054.44;4955345;29;19926;-81
2022/10/04 17:39:25;;;;;;;;;;;;;;;4.31;100.00;100061.41;4938549;29;19925;-81
2022/10/04 17:42:16;;;;;;;;;;;;;;;4.32;100.00;100057.88;4939551;29;19991;-82
2022/10/04 17:44:44;;;;;;;;;;;;;;;4.31;100.00;100067.53;4937681;29;19941;-82
2022/10/04 17:47:12;;;;;;;;;;;;;;;4.31;100.00;100075.41;4939517;29;19918;-80
2022/10/04 17:55:19;;;;;;;;;;;;;;;4.32;100.00;100065.75;4956034;29;19925;-81
2022/10/04 17:58:03;;;;;;;;;;;;;;;4.36;100.00;100067.47;4939116;29;20301;-81
2022/10/04 18:00:46;;;;;;;;;;;;;;;4.31;100.00;100064.91;4939268;29;19966;-81
2022/10/04 18:03:17;;;;;;;;;;;;;;;4.34;100.00;100059.63;4956463;29;19922;-83
2022/10/04 18:05:47;;;;;;;;;;;;;;;4.37;100.00;100063.94;4939192;29;19919;-81
2022/10/04 18:08:18;;;;;;;;;;;;;;;4.29;100.00;100068.41;4955166;28;20016;-81
2022/10/04 18:10:52;;;;;;;;;;;;;;;4.36;100.00;100065.72;4956201;29;19925;-82
2022/10/04 18:13:30;;;;;;;;;;;;;;;4.33;100.00;100070.13;4937725;29;20005;-81
2022/10/04 18:16:00;;;;;;;;;;;;;;;4.34;100.00;100066.59;4954552;29;20286;-83
2022/10/04 18:18:28;;;;;;;;;;;;;;;4.31;100.00;100064.03;4938915;29;19926;-83
2022/10/04 18:20:53;;;;;;;;;;;;;;;4.30;100.00;100062.31;4933220;29;19928;-81
2022/10/04 18:23:24;;;;;;;;;;;;;;;4.30;100.00;100062.31;4937838;29;20294;-81
2022/10/04 18:25:50;;;;;;;;;;;;;;;4.39;100.00;100062.19;4954378;29;19918;-81
2022/10/04 18:28:20;;;;;;;;;;;;;;;4.33;100.00;100065.75;4939066;29;20406;-82
2022/10/04 18:30:47;;;;;;;;;;;;;;;4.31;100.00;100066.66;4938795;28;20387;-81
2022/10/04 18:33:14;;;;;;;;;;;;;;;4.29;100.00;100071.94;4955888;29;19918;-80
2022/10/04 18:35:54;;;;;;;;;;;;;;;4.30;100.00;100078.03;4955137;28;19918;-84
2022/10/04 18:38:22;;;;;;;;;;;;;;;4.32;100.00;100082.38;4937585;29;19918;-81
2022/10/04 18:40:56;;;;;;;;;;;;;;;4.29;100.00;100087.66;4953663;28;19918;-80
2022/10/04 18:43:34;;;;;;;;;;;;;;;4.29;100.00;100086.78;4953877;28;19948;-82
2022/10/04 18:46:23;;;;;;;;;;;;;;;4.32;100.00;100087.63;4953985;29;20031;-81
2022/10/04 18:49:07;;;;;;;;;;;;;;;4.33;100.00;100078.00;4954970;28;20385;-81
2022/10/04 18:51:38;;;;;;;;;;;;;;;4.33;100.00;100078.84;4954748;28;19926;-80
2022/10/04 18:54:13;;;;;;;;;;;;;;;4.31;100.00;100085.88;4935968;29;20382;-85
2022/10/04 18:57:03;;;;;;;;;;;;;;;4.31;100.00;100085.03;4937785;29;19919;-82
2022/10/04 19:02:47;;;;;;;;;;;;;;;4.23;100.00;100076.34;4954160;28;19965;-80
2022/10/04 19:05:22;;;;;;;;;;;;;;;4.21;100.00;100080.78;4937228;29;20049;-81
2022/10/04 19:07:50;;;;;;;;;;;;;;;4.18;100.00;100085.19;4936321;29;19930;-80
2022/10/04 19:10:25;;;;;;;;;;;;;;;4.25;100.00;100082.47;4935647;29;19926;-81
2022/10/04 19:13:09;;;;;;;;;;;;;;;4.28;100.00;100090.31;4937638;29;19926;-80
2022/10/04 19:15:35;;;;;;;;;;;;;;;4.29;100.00;100099.91;4954288;29;19931;-81
2022/10/04 19:18:09;;;;;;;;;;;;;;;4.23;100.00;100099.97;4937908;29;19918;-84
2022/10/04 19:20:39;;;;;;;;;;;;;;;4.19;100.00;100115.75;4953985;28;19930;-82
2022/10/04 19:23:18;;;;;;;;;;;;;;;4.23;100.00;100120.94;4934678;28;20548;-81
2022/10/04 19:26:02;;;;;;;;;;;;;;;4.17;100.00;100122.78;4931366;28;19918;-81
2022/10/04 19:28:31;;;;;;;;;;;;;;;4.16;100.00;100120.16;4934901;29;19926;-82
2022/10/04 19:31:00;;;;;;;;;;;;;;;4.20;100.00;100124.50;4936492;29;19918;-82